sensor_id;sensor_type;location;lat;lon;timestamp;temperature;humidity
12289;DHT22;6207;49.308;7.336;2023-03-29T00:02:00;4.80;99.90
12289;DHT22;6207;49.308;7.336;2023-03-29T00:04:28;4.90;99.90
12289;DHT22;6207;49.308;7.336;2023-03-29T00:06:54;4.90;99.90
12289;DHT22;6207;49.308;7.336;2023-03-29T00:09:21;4.80;99.90
12289;DHT22;6207;49.308;7.336;2023-03-29T00:11:48;4.90;99.90
12289;DHT22;6207;49.308;7.336;2023-03-29T00:14:15;4.90;99.90
12289;DHT22;6207;49.308;7.336;2023-03-29T00:16:42;4.90;99.90
12289;DHT22;6207;49.308;7.336;2023-03-29T00:19:10;4.90;99.90
12289;DHT22;6207;49.308;7.336;2023-03-29T00:21:37;4.90;99.90
12289;DHT22;6207;49.308;7.336;2023-03-29T00:24:04;5.10;99.90
12289;DHT22;6207;49.308;7.336;2023-03-29T00:26:30;5.10;99.90
12289;DHT22;6207;49.308;7.336;2023-03-29T00:28:57;5.00;99.90
12289;DHT22;6207;49.308;7.336;2023-03-29T00:31:24;5.00;99.90
12289;DHT22;6207;49.308;7.336;2023-03-29T00:33:51;4.90;99.90
12289;DHT22;6207;49.308;7.336;2023-03-29T00:36:18;4.90;99.90
12289;DHT22;6207;49.308;7.336;2023-03-29T00:38:45;4.80;99.90
12289;DHT22;6207;49.308;7.336;2023-03-29T00:41:12;4.80;99.90
12289;DHT22;6207;49.308;7.336;2023-03-29T00:43:54;4.90;99.90
12289;DHT22;6207;49.308;7.336;2023-03-29T00:46:22;4.90;99.90
12289;DHT22;6207;49.308;7.336;2023-03-29T00:48:51;4.80;99.90
12289;DHT22;6207;49.308;7.336;2023-03-29T00:51:20;4.80;99.90
12289;DHT22;6207;49.308;7.336;2023-03-29T00:53:50;4.90;99.90
12289;DHT22;6207;49.308;7.336;2023-03-29T00:56:31;4.90;99.90
12289;DHT22;6207;49.308;7.336;2023-03-29T00:59:06;4.80;99.90
12289;DHT22;6207;49.308;7.336;2023-03-29T01:01:40;4.80;99.90
12289;DHT22;6207;49.308;7.336;2023-03-29T01:04:18;4.80;99.90
12289;DHT22;6207;49.308;7.336;2023-03-29T01:06:56;4.70;99.90
12289;DHT22;6207;49.308;7.336;2023-03-29T01:09:25;4.60;99.90
12289;DHT22;6207;49.308;7.336;2023-03-29T01:11:57;4.50;99.90
12289;DHT22;6207;49.308;7.336;2023-03-29T01:14:36;4.50;99.90
12289;DHT22;6207;49.308;7.336;2023-03-29T01:17:04;4.60;99.90
12289;DHT22;6207;49.308;7.336;2023-03-29T01:19:45;4.50;99.90
12289;DHT22;6207;49.308;7.336;2023-03-29T01:23:10;4.30;99.90
12289;DHT22;6207;49.308;7.336;2023-03-29T01:30:20;4.10;99.90
12289;DHT22;6207;49.308;7.336;2023-03-29T01:33:04;4.10;99.90
12289;DHT22;6207;49.308;7.336;2023-03-29T01:35:38;3.90;99.90
12289;DHT22;6207;49.308;7.336;2023-03-29T01:38:12;3.70;99.90
12289;DHT22;6207;49.308;7.336;2023-03-29T01:40:41;3.60;99.90
12289;DHT22;6207;49.308;7.336;2023-03-29T01:43:22;3.50;99.90
12289;DHT22;6207;49.308;7.336;2023-03-29T01:46:21;3.40;99.90
12289;DHT22;6207;49.308;7.336;2023-03-29T01:49:10;3.40;99.90
12289;DHT22;6207;49.308;7.336;2023-03-29T01:52:06;3.40;99.90
12289;DHT22;6207;49.308;7.336;2023-03-29T01:54:38;3.20;99.90
12289;DHT22;6207;49.308;7.336;2023-03-29T01:57:07;3.20;99.90
12289;DHT22;6207;49.308;7.336;2023-03-29T01:59:39;3.20;99.90
12289;DHT22;6207;49.308;7.336;2023-03-29T02:02:10;3.10;99.90
12289;DHT22;6207;49.308;7.336;2023-03-29T02:04:43;3.10;99.90
12289;DHT22;6207;49.308;7.336;2023-03-29T02:07:16;3.10;99.90
12289;DHT22;6207;49.308;7.336;2023-03-29T02:09:45;3.00;99.90
12289;DHT22;6207;49.308;7.336;2023-03-29T02:12:14;2.90;99.90
12289;DHT22;6207;49.308;7.336;2023-03-29T02:14:42;2.80;99.90
12289;DHT22;6207;49.308;7.336;2023-03-29T02:17:24;2.70;99.90
12289;DHT22;6207;49.308;7.336;2023-03-29T02:19:59;2.70;99.90
12289;DHT22;6207;49.308;7.336;2023-03-29T02:22:38;2.60;99.90
12289;DHT22;6207;49.308;7.336;2023-03-29T02:25:07;2.60;99.90
12289;DHT22;6207;49.308;7.336;2023-03-29T02:27:35;2.60;99.90
12289;DHT22;6207;49.308;7.336;2023-03-29T02:30:05;2.70;99.90
12289;DHT22;6207;49.308;7.336;2023-03-29T02:32:38;2.60;99.90
12289;DHT22;6207;49.308;7.336;2023-03-29T02:35:15;2.50;99.90
12289;DHT22;6207;49.308;7.336;2023-03-29T02:37:45;2.40;99.90
12289;DHT22;6207;49.308;7.336;2023-03-29T02:40:13;2.30;99.90
12289;DHT22;6207;49.308;7.336;2023-03-29T02:42:43;2.30;99.90
12289;DHT22;6207;49.308;7.336;2023-03-29T02:45:13;2.40;99.90
12289;DHT22;6207;49.308;7.336;2023-03-29T02:47:44;2.40;99.90
12289;DHT22;6207;49.308;7.336;2023-03-29T02:50:12;2.30;99.90
12289;DHT22;6207;49.308;7.336;2023-03-29T02:52:42;2.20;99.90
12289;DHT22;6207;49.308;7.336;2023-03-29T02:55:13;2.20;99.90
12289;DHT22;6207;49.308;7.336;2023-03-29T02:57:41;2.10;99.90
12289;DHT22;6207;49.308;7.336;2023-03-29T03:00:10;2.10;99.90
12289;DHT22;6207;49.308;7.336;2023-03-29T03:02:37;2.00;99.90
12289;DHT22;6207;49.308;7.336;2023-03-29T03:05:04;2.10;99.90
12289;DHT22;6207;49.308;7.336;2023-03-29T03:07:31;2.10;99.90
12289;DHT22;6207;49.308;7.336;2023-03-29T03:09:59;2.00;99.90
12289;DHT22;6207;49.308;7.336;2023-03-29T03:12:26;1.90;99.90
12289;DHT22;6207;49.308;7.336;2023-03-29T03:14:52;2.00;99.90
12289;DHT22;6207;49.308;7.336;2023-03-29T03:17:20;2.00;99.90
12289;DHT22;6207;49.308;7.336;2023-03-29T03:19:48;1.90;99.90
12289;DHT22;6207;49.308;7.336;2023-03-29T03:22:15;1.90;99.90
12289;DHT22;6207;49.308;7.336;2023-03-29T03:24:41;1.90;99.90
12289;DHT22;6207;49.308;7.336;2023-03-29T03:27:08;1.90;99.90
12289;DHT22;6207;49.308;7.336;2023-03-29T03:29:35;1.90;99.90
12289;DHT22;6207;49.308;7.336;2023-03-29T03:32:04;1.80;99.90
12289;DHT22;6207;49.308;7.336;2023-03-29T03:34:31;1.70;99.90
12289;DHT22;6207;49.308;7.336;2023-03-29T03:36:57;1.80;99.90
12289;DHT22;6207;49.308;7.336;2023-03-29T03:39:27;1.80;99.90
12289;DHT22;6207;49.308;7.336;2023-03-29T03:41:53;1.70;99.90
12289;DHT22;6207;49.308;7.336;2023-03-29T03:44:20;1.70;99.90
12289;DHT22;6207;49.308;7.336;2023-03-29T03:46:46;1.70;99.90
12289;DHT22;6207;49.308;7.336;2023-03-29T03:49:13;1.70;99.90
12289;DHT22;6207;49.308;7.336;2023-03-29T03:51:40;1.70;99.90
12289;DHT22;6207;49.308;7.336;2023-03-29T03:54:09;1.60;99.90
12289;DHT22;6207;49.308;7.336;2023-03-29T03:56:36;1.70;99.90
12289;DHT22;6207;49.308;7.336;2023-03-29T03:59:04;1.60;99.90
12289;DHT22;6207;49.308;7.336;2023-03-29T04:01:30;1.70;99.90
12289;DHT22;6207;49.308;7.336;2023-03-29T04:03:58;1.70;99.90
12289;DHT22;6207;49.308;7.336;2023-03-29T04:06:25;1.70;99.90
12289;DHT22;6207;49.308;7.336;2023-03-29T04:08:55;1.70;99.90
12289;DHT22;6207;49.308;7.336;2023-03-29T04:11:23;1.70;99.90
12289;DHT22;6207;49.308;7.336;2023-03-29T04:13:49;1.80;99.90
12289;DHT22;6207;49.308;7.336;2023-03-29T04:16:16;1.70;99.90
12289;DHT22;6207;49.308;7.336;2023-03-29T04:18:43;1.70;99.90
12289;DHT22;6207;49.308;7.336;2023-03-29T04:21:10;1.60;99.90
12289;DHT22;6207;49.308;7.336;2023-03-29T04:23:36;1.60;99.90
12289;DHT22;6207;49.308;7.336;2023-03-29T04:26:03;1.60;99.90
12289;DHT22;6207;49.308;7.336;2023-03-29T04:28:30;1.60;99.90
12289;DHT22;6207;49.308;7.336;2023-03-29T04:30:56;1.60;99.90
12289;DHT22;6207;49.308;7.336;2023-03-29T04:33:23;1.50;99.90
12289;DHT22;6207;49.308;7.336;2023-03-29T04:35:50;1.50;99.90
12289;DHT22;6207;49.308;7.336;2023-03-29T04:38:17;1.40;99.90
12289;DHT22;6207;49.308;7.336;2023-03-29T04:40:49;1.40;99.90
12289;DHT22;6207;49.308;7.336;2023-03-29T04:43:16;1.40;99.90
12289;DHT22;6207;49.308;7.336;2023-03-29T04:45:42;1.40;99.90
12289;DHT22;6207;49.308;7.336;2023-03-29T04:48:09;1.40;99.90
12289;DHT22;6207;49.308;7.336;2023-03-29T04:50:36;1.40;99.90
12289;DHT22;6207;49.308;7.336;2023-03-29T04:53:02;1.30;99.90
12289;DHT22;6207;49.308;7.336;2023-03-29T04:55:29;1.40;99.90
12289;DHT22;6207;49.308;7.336;2023-03-29T04:57:56;1.40;99.90
12289;DHT22;6207;49.308;7.336;2023-03-29T05:00:23;1.40;99.90
12289;DHT22;6207;49.308;7.336;2023-03-29T05:02:52;1.50;99.90
12289;DHT22;6207;49.308;7.336;2023-03-29T05:05:19;1.40;99.90
12289;DHT22;6207;49.308;7.336;2023-03-29T05:07:46;1.30;99.90
12289;DHT22;6207;49.308;7.336;2023-03-29T05:10:13;1.40;99.90
12289;DHT22;6207;49.308;7.336;2023-03-29T05:12:40;1.40;99.90
12289;DHT22;6207;49.308;7.336;2023-03-29T05:15:08;1.60;99.90
12289;DHT22;6207;49.308;7.336;2023-03-29T05:17:35;1.60;99.90
12289;DHT22;6207;49.308;7.336;2023-03-29T05:20:02;1.70;99.90
12289;DHT22;6207;49.308;7.336;2023-03-29T05:22:35;1.80;99.90
12289;DHT22;6207;49.308;7.336;2023-03-29T05:25:02;1.90;99.90
12289;DHT22;6207;49.308;7.336;2023-03-29T05:27:28;2.00;99.90
12289;DHT22;6207;49.308;7.336;2023-03-29T05:29:56;2.10;99.90
12289;DHT22;6207;49.308;7.336;2023-03-29T05:32:22;2.20;99.90
12289;DHT22;6207;49.308;7.336;2023-03-29T05:34:49;2.20;99.90
12289;DHT22;6207;49.308;7.336;2023-03-29T05:37:16;2.20;99.90
12289;DHT22;6207;49.308;7.336;2023-03-29T05:39:43;2.30;99.90
12289;DHT22;6207;49.308;7.336;2023-03-29T05:42:11;2.40;99.90
12289;DHT22;6207;49.308;7.336;2023-03-29T05:44:41;2.40;99.90
12289;DHT22;6207;49.308;7.336;2023-03-29T05:47:08;2.50;99.90
12289;DHT22;6207;49.308;7.336;2023-03-29T05:49:34;2.60;99.90
12289;DHT22;6207;49.308;7.336;2023-03-29T05:52:03;2.70;99.90
12289;DHT22;6207;49.308;7.336;2023-03-29T05:54:29;2.80;99.90
12289;DHT22;6207;49.308;7.336;2023-03-29T05:56:56;2.70;99.90
12289;DHT22;6207;49.308;7.336;2023-03-29T05:59:23;2.90;99.90
12289;DHT22;6207;49.308;7.336;2023-03-29T06:01:50;2.90;99.90
12289;DHT22;6207;49.308;7.336;2023-03-29T06:04:17;3.00;99.90
12289;DHT22;6207;49.308;7.336;2023-03-29T06:06:44;3.10;99.90
12289;DHT22;6207;49.308;7.336;2023-03-29T06:09:11;3.20;99.90
12289;DHT22;6207;49.308;7.336;2023-03-29T06:11:38;3.20;99.90
12289;DHT22;6207;49.308;7.336;2023-03-29T06:14:05;3.20;99.90
12289;DHT22;6207;49.308;7.336;2023-03-29T06:16:31;3.30;99.90
12289;DHT22;6207;49.308;7.336;2023-03-29T06:18:58;3.40;99.90
12289;DHT22;6207;49.308;7.336;2023-03-29T06:21:25;3.40;99.90
12289;DHT22;6207;49.308;7.336;2023-03-29T06:23:52;3.40;99.90
12289;DHT22;6207;49.308;7.336;2023-03-29T06:26:19;3.40;99.90
12289;DHT22;6207;49.308;7.336;2023-03-29T06:28:46;3.50;99.90
12289;DHT22;6207;49.308;7.336;2023-03-29T06:31:17;3.50;99.90
12289;DHT22;6207;49.308;7.336;2023-03-29T06:33:46;3.60;99.90
12289;DHT22;6207;49.308;7.336;2023-03-29T06:36:13;3.70;99.90
12289;DHT22;6207;49.308;7.336;2023-03-29T06:38:42;3.70;99.90
12289;DHT22;6207;49.308;7.336;2023-03-29T06:41:10;3.90;99.90
12289;DHT22;6207;49.308;7.336;2023-03-29T06:43:37;3.90;99.90
12289;DHT22;6207;49.308;7.336;2023-03-29T06:46:04;4.00;99.90
12289;DHT22;6207;49.308;7.336;2023-03-29T06:48:37;4.00;99.90
12289;DHT22;6207;49.308;7.336;2023-03-29T06:51:05;4.10;99.90
12289;DHT22;6207;49.308;7.336;2023-03-29T06:53:33;4.20;99.90
12289;DHT22;6207;49.308;7.336;2023-03-29T06:56:00;4.30;99.90
12289;DHT22;6207;49.308;7.336;2023-03-29T06:58:30;4.30;99.90
12289;DHT22;6207;49.308;7.336;2023-03-29T07:00:59;4.40;99.90
12289;DHT22;6207;49.308;7.336;2023-03-29T07:03:28;4.40;99.90
12289;DHT22;6207;49.308;7.336;2023-03-29T07:06:02;4.50;99.90
12289;DHT22;6207;49.308;7.336;2023-03-29T07:08:36;4.80;99.90
12289;DHT22;6207;49.308;7.336;2023-03-29T07:11:10;4.80;99.90
12289;DHT22;6207;49.308;7.336;2023-03-29T07:13:39;5.00;99.90
12289;DHT22;6207;49.308;7.336;2023-03-29T07:16:09;5.10;99.90
12289;DHT22;6207;49.308;7.336;2023-03-29T07:18:39;5.10;99.90
12289;DHT22;6207;49.308;7.336;2023-03-29T07:21:07;5.10;99.90
12289;DHT22;6207;49.308;7.336;2023-03-29T07:23:34;5.20;99.90
12289;DHT22;6207;49.308;7.336;2023-03-29T07:26:01;5.30;99.90
12289;DHT22;6207;49.308;7.336;2023-03-29T07:28:28;5.20;99.90
12289;DHT22;6207;49.308;7.336;2023-03-29T07:31:03;5.10;99.90
12289;DHT22;6207;49.308;7.336;2023-03-29T07:33:32;5.00;99.90
12289;DHT22;6207;49.308;7.336;2023-03-29T07:36:00;5.00;99.90
12289;DHT22;6207;49.308;7.336;2023-03-29T07:38:27;5.30;99.90
12289;DHT22;6207;49.308;7.336;2023-03-29T07:40:54;5.50;99.90
12289;DHT22;6207;49.308;7.336;2023-03-29T07:43:21;5.70;99.90
12289;DHT22;6207;49.308;7.336;2023-03-29T07:45:50;5.80;99.90
12289;DHT22;6207;49.308;7.336;2023-03-29T07:48:18;5.90;99.90
12289;DHT22;6207;49.308;7.336;2023-03-29T07:50:45;6.20;99.90
12289;DHT22;6207;49.308;7.336;2023-03-29T07:53:12;6.60;99.90
12289;DHT22;6207;49.308;7.336;2023-03-29T07:55:39;6.80;99.90
12289;DHT22;6207;49.308;7.336;2023-03-29T07:58:13;7.10;99.90
12289;DHT22;6207;49.308;7.336;2023-03-29T08:00:41;7.20;99.90
12289;DHT22;6207;49.308;7.336;2023-03-29T08:03:12;7.40;99.90
12289;DHT22;6207;49.308;7.336;2023-03-29T08:05:39;7.50;99.90
12289;DHT22;6207;49.308;7.336;2023-03-29T08:08:07;7.90;99.90
12289;DHT22;6207;49.308;7.336;2023-03-29T08:10:36;8.20;99.90
12289;DHT22;6207;49.308;7.336;2023-03-29T08:13:06;8.40;99.90
12289;DHT22;6207;49.308;7.336;2023-03-29T08:15:38;9.30;99.90
12289;DHT22;6207;49.308;7.336;2023-03-29T08:18:06;9.40;99.90
12289;DHT22;6207;49.308;7.336;2023-03-29T08:20:33;9.50;99.90
12289;DHT22;6207;49.308;7.336;2023-03-29T08:23:00;10.10;99.90
12289;DHT22;6207;49.308;7.336;2023-03-29T08:25:27;10.60;99.90
12289;DHT22;6207;49.308;7.336;2023-03-29T08:27:53;10.70;99.90
12289;DHT22;6207;49.308;7.336;2023-03-29T08:30:20;11.10;99.90
12289;DHT22;6207;49.308;7.336;2023-03-29T08:32:47;11.20;99.90
12289;DHT22;6207;49.308;7.336;2023-03-29T08:35:19;11.20;99.90
12289;DHT22;6207;49.308;7.336;2023-03-29T08:37:46;11.30;99.90
12289;DHT22;6207;49.308;7.336;2023-03-29T08:40:22;11.20;99.90
12289;DHT22;6207;49.308;7.336;2023-03-29T08:43:08;11.00;99.90
12289;DHT22;6207;49.308;7.336;2023-03-29T08:48:29;10.40;99.90
12289;DHT22;6207;49.308;7.336;2023-03-29T08:51:02;10.70;99.90
12289;DHT22;6207;49.308;7.336;2023-03-29T08:53:40;11.00;99.90
12289;DHT22;6207;49.308;7.336;2023-03-29T08:56:15;11.30;99.90
12289;DHT22;6207;49.308;7.336;2023-03-29T08:58:44;11.00;99.90
12289;DHT22;6207;49.308;7.336;2023-03-29T09:01:12;10.90;99.90
12289;DHT22;6207;49.308;7.336;2023-03-29T09:03:56;10.70;99.90
12289;DHT22;6207;49.308;7.336;2023-03-29T09:06:26;10.90;99.90
12289;DHT22;6207;49.308;7.336;2023-03-29T09:08:53;10.80;99.90
12289;DHT22;6207;49.308;7.336;2023-03-29T09:14:02;10.90;99.90
12289;DHT22;6207;49.308;7.336;2023-03-29T09:22:21;12.20;99.90
12289;DHT22;6207;49.308;7.336;2023-03-29T09:25:21;13.40;99.90
12289;DHT22;6207;49.308;7.336;2023-03-29T09:28:03;12.70;99.90
12289;DHT22;6207;49.308;7.336;2023-03-29T09:30:38;12.30;99.90
12289;DHT22;6207;49.308;7.336;2023-03-29T09:33:20;11.60;99.90
12289;DHT22;6207;49.308;7.336;2023-03-29T09:35:53;11.80;99.90
12289;DHT22;6207;49.308;7.336;2023-03-29T09:38:23;12.50;99.90
12289;DHT22;6207;49.308;7.336;2023-03-29T09:40:56;11.90;99.90
12289;DHT22;6207;49.308;7.336;2023-03-29T09:43:38;12.60;99.90
12289;DHT22;6207;49.308;7.336;2023-03-29T09:46:20;13.10;99.90
12289;DHT22;6207;49.308;7.336;2023-03-29T09:48:49;12.60;99.90
12289;DHT22;6207;49.308;7.336;2023-03-29T09:51:18;12.50;99.90
12289;DHT22;6207;49.308;7.336;2023-03-29T09:53:47;12.10;99.90
12289;DHT22;6207;49.308;7.336;2023-03-29T09:56:14;12.50;99.90
12289;DHT22;6207;49.308;7.336;2023-03-29T09:58:42;13.30;99.90
12289;DHT22;6207;49.308;7.336;2023-03-29T10:01:13;14.00;99.90
12289;DHT22;6207;49.308;7.336;2023-03-29T10:03:41;14.30;99.90
12289;DHT22;6207;49.308;7.336;2023-03-29T10:06:13;14.20;99.90
12289;DHT22;6207;49.308;7.336;2023-03-29T10:08:48;14.50;99.90
12289;DHT22;6207;49.308;7.336;2023-03-29T10:13:46;13.50;99.90
12289;DHT22;6207;49.308;7.336;2023-03-29T10:16:22;13.70;99.90
12289;DHT22;6207;49.308;7.336;2023-03-29T10:18:49;13.70;99.90
12289;DHT22;6207;49.308;7.336;2023-03-29T10:21:17;13.30;99.90
12289;DHT22;6207;49.308;7.336;2023-03-29T10:23:47;13.10;99.90
12289;DHT22;6207;49.308;7.336;2023-03-29T10:26:30;12.80;99.90
12289;DHT22;6207;49.308;7.336;2023-03-29T10:28:58;12.40;99.90
12289;DHT22;6207;49.308;7.336;2023-03-29T10:31:29;12.30;99.90
12289;DHT22;6207;49.308;7.336;2023-03-29T10:34:04;12.10;99.90
12289;DHT22;6207;49.308;7.336;2023-03-29T10:36:32;12.20;99.90
12289;DHT22;6207;49.308;7.336;2023-03-29T10:39:00;12.40;99.90
12289;DHT22;6207;49.308;7.336;2023-03-29T10:41:32;12.50;99.90
12289;DHT22;6207;49.308;7.336;2023-03-29T10:44:01;12.60;99.90
12289;DHT22;6207;49.308;7.336;2023-03-29T10:46:30;13.00;99.90
12289;DHT22;6207;49.308;7.336;2023-03-29T10:49:04;13.40;99.90
12289;DHT22;6207;49.308;7.336;2023-03-29T10:51:46;13.20;99.90
12289;DHT22;6207;49.308;7.336;2023-03-29T10:54:15;13.80;99.90
12289;DHT22;6207;49.308;7.336;2023-03-29T10:56:57;13.10;99.90
12289;DHT22;6207;49.308;7.336;2023-03-29T10:59:42;12.90;99.90
12289;DHT22;6207;49.308;7.336;2023-03-29T11:04:47;13.00;99.90
12289;DHT22;6207;49.308;7.336;2023-03-29T11:07:35;13.40;99.90
12289;DHT22;6207;49.308;7.336;2023-03-29T11:10:35;13.70;99.90
12289;DHT22;6207;49.308;7.336;2023-03-29T11:13:16;14.00;99.90
12289;DHT22;6207;49.308;7.336;2023-03-29T11:21:41;13.10;99.90
12289;DHT22;6207;49.308;7.336;2023-03-29T11:27:28;13.60;99.90
12289;DHT22;6207;49.308;7.336;2023-03-29T11:30:07;13.50;99.90
12289;DHT22;6207;49.308;7.336;2023-03-29T11:40:45;14.00;99.90
12289;DHT22;6207;49.308;7.336;2023-03-29T11:43:36;14.20;99.90
12289;DHT22;6207;49.308;7.336;2023-03-29T11:46:22;14.10;99.90
12289;DHT22;6207;49.308;7.336;2023-03-29T11:51:51;15.00;99.90
12289;DHT22;6207;49.308;7.336;2023-03-29T11:54:27;15.10;99.90
12289;DHT22;6207;49.308;7.336;2023-03-29T11:57:04;15.20;99.90
12289;DHT22;6207;49.308;7.336;2023-03-29T11:59:39;15.20;99.90
12289;DHT22;6207;49.308;7.336;2023-03-29T12:02:30;15.30;99.90
12289;DHT22;6207;49.308;7.336;2023-03-29T12:05:06;15.10;99.90
12289;DHT22;6207;49.308;7.336;2023-03-29T12:07:41;15.20;99.90
12289;DHT22;6207;49.308;7.336;2023-03-29T12:10:25;14.90;99.90
12289;DHT22;6207;49.308;7.336;2023-03-29T12:13:04;15.20;99.90
12289;DHT22;6207;49.308;7.336;2023-03-29T12:15:41;15.70;99.90
12289;DHT22;6207;49.308;7.336;2023-03-29T12:18:16;15.80;99.90
12289;DHT22;6207;49.308;7.336;2023-03-29T12:20:48;15.60;99.90
12289;DHT22;6207;49.308;7.336;2023-03-29T12:23:18;14.80;99.90
12289;DHT22;6207;49.308;7.336;2023-03-29T12:28:43;14.50;99.90
12289;DHT22;6207;49.308;7.336;2023-03-29T12:39:27;13.90;99.90
12289;DHT22;6207;49.308;7.336;2023-03-29T12:42:17;13.50;99.90
12289;DHT22;6207;49.308;7.336;2023-03-29T12:45:13;13.60;99.90
12289;DHT22;6207;49.308;7.336;2023-03-29T12:47:45;13.30;99.90
12289;DHT22;6207;49.308;7.336;2023-03-29T12:50:41;12.90;99.90
12289;DHT22;6207;49.308;7.336;2023-03-29T12:58:25;12.90;99.90
12289;DHT22;6207;49.308;7.336;2023-03-29T13:06:04;13.00;99.90
12289;DHT22;6207;49.308;7.336;2023-03-29T13:08:44;13.20;99.90
12289;DHT22;6207;49.308;7.336;2023-03-29T13:11:26;13.00;99.90
12289;DHT22;6207;49.308;7.336;2023-03-29T13:13:54;13.00;99.90
12289;DHT22;6207;49.308;7.336;2023-03-29T13:16:31;13.40;99.90
12289;DHT22;6207;49.308;7.336;2023-03-29T13:19:35;13.60;99.90
12289;DHT22;6207;49.308;7.336;2023-03-29T13:31:14;14.40;99.90
12289;DHT22;6207;49.308;7.336;2023-03-29T13:33:53;14.70;99.90
12289;DHT22;6207;49.308;7.336;2023-03-29T13:39:20;15.10;99.90
12289;DHT22;6207;49.308;7.336;2023-03-29T13:41:51;14.80;99.90
12289;DHT22;6207;49.308;7.336;2023-03-29T13:46:48;14.80;99.90
12289;DHT22;6207;49.308;7.336;2023-03-29T13:49:28;14.30;99.90
12289;DHT22;6207;49.308;7.336;2023-03-29T13:52:18;14.30;99.90
12289;DHT22;6207;49.308;7.336;2023-03-29T13:55:03;14.40;99.90
12289;DHT22;6207;49.308;7.336;2023-03-29T13:57:40;14.60;99.90
12289;DHT22;6207;49.308;7.336;2023-03-29T14:00:32;14.80;99.90
12289;DHT22;6207;49.308;7.336;2023-03-29T14:03:07;14.60;99.90
12289;DHT22;6207;49.308;7.336;2023-03-29T14:05:37;14.50;99.90
12289;DHT22;6207;49.308;7.336;2023-03-29T14:08:22;14.70;99.90
12289;DHT22;6207;49.308;7.336;2023-03-29T14:10:52;14.40;99.90
12289;DHT22;6207;49.308;7.336;2023-03-29T14:13:21;14.50;99.90
12289;DHT22;6207;49.308;7.336;2023-03-29T14:15:52;14.60;99.90
12289;DHT22;6207;49.308;7.336;2023-03-29T14:18:23;14.90;99.90
12289;DHT22;6207;49.308;7.336;2023-03-29T14:20:53;14.50;99.90
12289;DHT22;6207;49.308;7.336;2023-03-29T14:23:23;15.00;99.90
12289;DHT22;6207;49.308;7.336;2023-03-29T14:25:50;15.30;99.90
12289;DHT22;6207;49.308;7.336;2023-03-29T14:28:26;15.10;99.90
12289;DHT22;6207;49.308;7.336;2023-03-29T14:30:54;14.90;99.90
12289;DHT22;6207;49.308;7.336;2023-03-29T14:33:30;15.30;99.90
12289;DHT22;6207;49.308;7.336;2023-03-29T14:36:01;15.30;99.90
12289;DHT22;6207;49.308;7.336;2023-03-29T14:38:35;15.70;99.90
12289;DHT22;6207;49.308;7.336;2023-03-29T14:41:02;15.70;99.90
12289;DHT22;6207;49.308;7.336;2023-03-29T14:43:30;15.70;99.90
12289;DHT22;6207;49.308;7.336;2023-03-29T14:45:59;16.10;99.90
12289;DHT22;6207;49.308;7.336;2023-03-29T14:48:29;16.00;99.90
12289;DHT22;6207;49.308;7.336;2023-03-29T14:50:59;15.60;99.90
12289;DHT22;6207;49.308;7.336;2023-03-29T14:53:26;15.80;99.90
12289;DHT22;6207;49.308;7.336;2023-03-29T14:55:56;16.00;99.90
12289;DHT22;6207;49.308;7.336;2023-03-29T14:58:34;15.70;99.90
12289;DHT22;6207;49.308;7.336;2023-03-29T15:01:06;15.70;99.90
12289;DHT22;6207;49.308;7.336;2023-03-29T15:03:43;15.70;99.90
12289;DHT22;6207;49.308;7.336;2023-03-29T15:06:12;15.50;99.90
12289;DHT22;6207;49.308;7.336;2023-03-29T15:08:40;15.60;99.90
12289;DHT22;6207;49.308;7.336;2023-03-29T15:11:25;15.50;99.90
12289;DHT22;6207;49.308;7.336;2023-03-29T15:14:04;15.60;99.90
12289;DHT22;6207;49.308;7.336;2023-03-29T15:16:32;15.50;99.90
12289;DHT22;6207;49.308;7.336;2023-03-29T15:19:00;15.60;99.90
12289;DHT22;6207;49.308;7.336;2023-03-29T15:21:37;15.80;99.90
12289;DHT22;6207;49.308;7.336;2023-03-29T15:24:04;15.60;99.90
12289;DHT22;6207;49.308;7.336;2023-03-29T15:26:34;15.50;99.90
12289;DHT22;6207;49.308;7.336;2023-03-29T15:31:37;15.50;99.90
12289;DHT22;6207;49.308;7.336;2023-03-29T15:34:11;15.60;99.90
12289;DHT22;6207;49.308;7.336;2023-03-29T15:36:44;15.70;99.90
12289;DHT22;6207;49.308;7.336;2023-03-29T15:39:13;15.80;99.90
12289;DHT22;6207;49.308;7.336;2023-03-29T15:41:41;16.00;99.90
12289;DHT22;6207;49.308;7.336;2023-03-29T15:44:09;16.10;99.90
12289;DHT22;6207;49.308;7.336;2023-03-29T15:46:36;16.10;99.90
12289;DHT22;6207;49.308;7.336;2023-03-29T15:49:03;16.60;99.90
12289;DHT22;6207;49.308;7.336;2023-03-29T15:51:30;16.20;99.90
12289;DHT22;6207;49.308;7.336;2023-03-29T15:53:57;16.20;99.90
12289;DHT22;6207;49.308;7.336;2023-03-29T15:56:24;16.50;99.90
12289;DHT22;6207;49.308;7.336;2023-03-29T15:58:52;16.30;99.90
12289;DHT22;6207;49.308;7.336;2023-03-29T16:01:26;16.40;99.90
12289;DHT22;6207;49.308;7.336;2023-03-29T16:04:20;16.50;99.90
12289;DHT22;6207;49.308;7.336;2023-03-29T16:06:49;16.60;99.90
12289;DHT22;6207;49.308;7.336;2023-03-29T16:09:19;16.60;99.90
12289;DHT22;6207;49.308;7.336;2023-03-29T16:11:48;16.60;99.90
12289;DHT22;6207;49.308;7.336;2023-03-29T16:14:21;16.70;99.90
12289;DHT22;6207;49.308;7.336;2023-03-29T16:16:50;16.70;99.90
12289;DHT22;6207;49.308;7.336;2023-03-29T16:19:18;16.70;99.90
12289;DHT22;6207;49.308;7.336;2023-03-29T16:21:44;16.80;99.90
12289;DHT22;6207;49.308;7.336;2023-03-29T16:24:17;16.80;99.90
12289;DHT22;6207;49.308;7.336;2023-03-29T16:26:48;16.80;99.90
12289;DHT22;6207;49.308;7.336;2023-03-29T16:29:15;16.80;99.90
12289;DHT22;6207;49.308;7.336;2023-03-29T16:31:44;16.70;99.90
12289;DHT22;6207;49.308;7.336;2023-03-29T16:34:12;16.60;99.90
12289;DHT22;6207;49.308;7.336;2023-03-29T16:36:39;16.60;99.90
12289;DHT22;6207;49.308;7.336;2023-03-29T16:39:06;16.60;99.90
12289;DHT22;6207;49.308;7.336;2023-03-29T16:41:33;16.60;99.90
12289;DHT22;6207;49.308;7.336;2023-03-29T16:44:00;16.50;99.90
12289;DHT22;6207;49.308;7.336;2023-03-29T16:46:26;16.50;99.90
12289;DHT22;6207;49.308;7.336;2023-03-29T16:48:53;16.50;99.90
12289;DHT22;6207;49.308;7.336;2023-03-29T16:51:20;16.30;99.90
12289;DHT22;6207;49.308;7.336;2023-03-29T16:53:47;16.20;99.90
12289;DHT22;6207;49.308;7.336;2023-03-29T16:56:14;16.20;99.90
12289;DHT22;6207;49.308;7.336;2023-03-29T16:58:41;16.20;99.90
12289;DHT22;6207;49.308;7.336;2023-03-29T17:01:09;16.10;99.90
12289;DHT22;6207;49.308;7.336;2023-03-29T17:03:37;16.20;99.90
12289;DHT22;6207;49.308;7.336;2023-03-29T17:06:04;16.20;99.90
12289;DHT22;6207;49.308;7.336;2023-03-29T17:08:32;16.10;99.90
12289;DHT22;6207;49.308;7.336;2023-03-29T17:10:59;15.90;99.90
12289;DHT22;6207;49.308;7.336;2023-03-29T17:13:26;15.90;99.90
12289;DHT22;6207;49.308;7.336;2023-03-29T17:15:54;15.90;99.90
12289;DHT22;6207;49.308;7.336;2023-03-29T17:18:23;16.00;99.90
12289;DHT22;6207;49.308;7.336;2023-03-29T17:20:52;15.90;99.90
12289;DHT22;6207;49.308;7.336;2023-03-29T17:23:20;15.90;99.90
12289;DHT22;6207;49.308;7.336;2023-03-29T17:25:47;15.80;99.90
12289;DHT22;6207;49.308;7.336;2023-03-29T17:28:14;15.80;99.90
12289;DHT22;6207;49.308;7.336;2023-03-29T17:30:43;15.70;99.90
12289;DHT22;6207;49.308;7.336;2023-03-29T17:33:10;15.70;99.90
12289;DHT22;6207;49.308;7.336;2023-03-29T17:35:42;15.70;99.90
12289;DHT22;6207;49.308;7.336;2023-03-29T17:38:10;15.70;99.90
12289;DHT22;6207;49.308;7.336;2023-03-29T17:40:37;15.60;99.90